Time;durP1;ratioP1;P1;durP2;ratioP2;P2;SDS_P1;SDS_P2;PMS_P1;PMS_P2;Temp;Humidity;BMP_temperature;BMP_pressure;BME280_temperature;BME280_humidity;BME280_pressure;Samples;Min_cycle;Max_cycle;Signal;HPM_P1;HPM_P2
2021/09/19 00:02:04;;;;;;;8.98;4.05;;;11.80;99.90;;;;;;5052068;28;20076;-73
2021/09/19 00:04:31;;;;;;;6.28;3.25;;;11.90;99.90;;;;;;5053487;28;20107;-72
2021/09/19 00:06:58;;;;;;;6.38;3.47;;;12.00;99.90;;;;;;5050007;28;20083;-73
2021/09/19 00:09:25;;;;;;;5.43;2.95;;;12.00;99.90;;;;;;5046393;28;20143;-74
2021/09/19 00:11:53;;;;;;;6.95;3.15;;;11.90;99.90;;;;;;5048603;28;20168;-74
2021/09/19 00:14:20;;;;;;;6.50;3.25;;;11.80;99.90;;;;;;5044296;28;20502;-71
2021/09/19 00:16:48;;;;;;;7.40;3.38;;;11.80;99.90;;;;;;5044243;28;20106;-73
2021/09/19 00:19:16;;;;;;;6.10;3.85;;;11.80;99.90;;;;;;5044173;28;20056;-73
2021/09/19 00:21:43;;;;;;;5.70;3.30;;;11.60;99.90;;;;;;5040675;28;20439;-74
2021/09/19 00:24:10;;;;;;;5.82;3.00;;;11.50;99.90;;;;;;5031833;28;20059;-74
2021/09/19 00:26:37;;;;;;;7.53;3.53;;;11.50;99.90;;;;;;5038865;28;20102;-73
2021/09/19 00:29:06;;;;;;;8.50;2.95;;;11.50;99.90;;;;;;5042588;28;20135;-74
2021/09/19 00:31:33;;;;;;;7.00;3.45;;;11.40;99.90;;;;;;5040871;28;20056;-74
2021/09/19 00:34:00;;;;;;;5.07;3.00;;;11.40;99.90;;;;;;5041329;28;20044;-74
2021/09/19 00:36:27;;;;;;;5.25;2.78;;;11.40;99.90;;;;;;5041041;28;20550;-74
2021/09/19 00:38:54;;;;;;;7.07;3.28;;;11.50;99.90;;;;;;5043177;28;20049;-74
2021/09/19 00:41:24;;;;;;;5.78;3.40;;;11.40;99.90;;;;;;5040937;28;20574;-74
2021/09/19 00:43:51;;;;;;;6.75;3.45;;;11.30;99.90;;;;;;5042046;28;20476;-74
2021/09/19 00:46:19;;;;;;;5.82;3.40;;;11.20;99.90;;;;;;5043421;28;20139;-74
2021/09/19 00:48:46;;;;;;;6.90;3.85;;;11.10;99.90;;;;;;5044210;28;20553;-74
2021/09/19 00:51:16;;;;;;;6.45;3.83;;;11.00;99.90;;;;;;5042310;28;20145;-74
2021/09/19 00:53:45;;;;;;;6.10;3.50;;;11.10;99.90;;;;;;5042110;28;20044;-74
2021/09/19 00:56:18;;;;;;;8.27;3.63;;;11.00;99.90;;;;;;5040052;28;20041;-74
2021/09/19 00:58:50;;;;;;;6.00;3.22;;;11.10;99.90;;;;;;5043148;28;20668;-74
2021/09/19 01:01:22;;;;;;;6.40;3.85;;;11.10;99.90;;;;;;5043552;28;20135;-74
2021/09/19 01:03:50;;;;;;;7.38;3.72;;;11.10;99.90;;;;;;5043444;28;20241;-74
2021/09/19 01:06:17;;;;;;;12.00;3.50;;;11.20;99.90;;;;;;5042999;28;20146;-74
2021/09/19 01:08:47;;;;;;;7.95;3.80;;;11.10;99.90;;;;;;5042141;28;20053;-74
2021/09/19 01:11:16;;;;;;;6.30;3.38;;;11.10;99.90;;;;;;5043338;28;20064;-74
2021/09/19 01:13:44;;;;;;;6.00;3.60;;;11.10;99.90;;;;;;5042599;28;20139;-74
2021/09/19 01:16:12;;;;;;;7.80;4.20;;;11.10;99.90;;;;;;5041748;28;20048;-74
2021/09/19 01:18:41;;;;;;;6.20;3.50;;;11.00;99.90;;;;;;5046405;28;20135;-74
2021/09/19 01:21:09;;;;;;;11.05;3.97;;;11.00;99.90;;;;;;5043326;28;20071;-74
2021/09/19 01:23:57;;;;;;;7.35;3.40;;;11.00;99.90;;;;;;5045135;28;20080;-74
2021/09/19 01:26:26;;;;;;;7.43;3.67;;;11.20;99.90;;;;;;5041504;28;20167;-74
2021/09/19 01:28:53;;;;;;;8.50;3.75;;;11.10;99.90;;;;;;5043131;28;21015;-74
2021/09/19 01:31:20;;;;;;;6.35;3.58;;;11.00;99.90;;;;;;5044366;28;20084;-74
2021/09/19 01:33:47;;;;;;;6.10;3.35;;;11.00;99.90;;;;;;5043769;28;20051;-74
2021/09/19 01:36:15;;;;;;;9.15;3.60;;;11.00;99.90;;;;;;5043179;28;20137;-74
2021/09/19 01:38:43;;;;;;;6.70;4.18;;;11.00;99.90;;;;;;5043627;28;20087;-74
2021/09/19 01:41:16;;;;;;;6.68;4.07;;;11.10;99.90;;;;;;5044594;28;20044;-73
2021/09/19 01:43:43;;;;;;;8.15;4.15;;;11.20;99.90;;;;;;5044736;28;20084;-74
2021/09/19 01:46:10;;;;;;;7.57;4.20;;;11.20;99.90;;;;;;5043797;28;20535;-73
2021/09/19 01:48:38;;;;;;;6.22;3.53;;;11.20;99.90;;;;;;5043932;28;20517;-74
2021/09/19 01:51:06;;;;;;;6.82;3.67;;;11.10;99.90;;;;;;5044537;28;20592;-73
2021/09/19 01:53:33;;;;;;;6.35;3.75;;;11.20;99.90;;;;;;5044159;28;20386;-73
2021/09/19 01:56:00;;;;;;;6.13;4.00;;;11.10;99.90;;;;;;5043410;28;20075;-73
2021/09/19 01:58:29;;;;;;;7.05;3.70;;;11.20;99.90;;;;;;5043133;28;20500;-73
2021/09/19 02:01:01;;;;;;;7.65;4.25;;;11.20;99.90;;;;;;5045412;28;20558;-73
2021/09/19 02:03:31;;;;;;;8.23;4.25;;;11.10;99.90;;;;;;5041947;28;20106;-73
2021/09/19 02:05:58;;;;;;;7.55;4.53;;;11.10;99.90;;;;;;5042255;28;20052;-73
2021/09/19 02:08:24;;;;;;;10.60;4.80;;;11.00;99.90;;;;;;5041300;28;20463;-73
2021/09/19 02:10:51;;;;;;;9.20;4.32;;;11.00;99.90;;;;;;5042878;28;20061;-73
2021/09/19 02:13:18;;;;;;;9.43;5.18;;;11.00;99.90;;;;;;5041674;28;20048;-74
2021/09/19 02:15:47;;;;;;;7.50;4.35;;;11.00;99.90;;;;;;5043346;28;20122;-73
2021/09/19 02:18:14;;;;;;;7.45;4.88;;;11.00;99.90;;;;;;5043880;28;20127;-73
2021/09/19 02:20:41;;;;;;;8.32;4.63;;;10.90;99.90;;;;;;5042277;28;21101;-74
2021/09/19 02:23:08;;;;;;;8.10;4.35;;;10.90;99.90;;;;;;5042990;28;20106;-74
2021/09/19 02:25:35;;;;;;;7.63;4.28;;;10.90;99.90;;;;;;5040125;28;20084;-73
2021/09/19 02:28:02;;;;;;;11.13;4.85;;;10.90;99.90;;;;;;5036631;28;20052;-74
2021/09/19 02:30:29;;;;;;;9.00;4.47;;;10.80;99.90;;;;;;5035626;28;20045;-74
2021/09/19 02:32:57;;;;;;;8.45;4.70;;;10.80;99.90;;;;;;5034462;28;20048;-74
2021/09/19 02:35:24;;;;;;;6.97;4.65;;;10.80;99.90;;;;;;5036665;28;20094;-74
2021/09/19 02:37:51;;;;;;;15.07;6.78;;;10.80;99.90;;;;;;5035161;28;20056;-74
2021/09/19 02:40:19;;;;;;;13.40;6.00;;;10.80;99.90;;;;;;5033933;28;20072;-75
2021/09/19 02:42:47;;;;;;;10.18;6.25;;;10.80;99.90;;;;;;5035745;28;20056;-74
2021/09/19 02:45:15;;;;;;;12.15;6.10;;;10.80;99.90;;;;;;5034790;28;20040;-74
2021/09/19 02:47:42;;;;;;;11.93;6.63;;;10.80;99.90;;;;;;5035003;28;20201;-74
2021/09/19 02:50:13;;;;;;;10.10;6.00;;;10.80;99.90;;;;;;5035193;28;20048;-74
2021/09/19 02:52:40;;;;;;;9.13;5.53;;;10.80;99.90;;;;;;5034272;28;20167;-74
2021/09/19 02:55:08;;;;;;;11.13;5.85;;;10.80;99.90;;;;;;5033212;28;20482;-74
2021/09/19 02:57:35;;;;;;;12.75;6.65;;;10.80;99.90;;;;;;5034390;28;20040;-75
2021/09/19 03:00:03;;;;;;;9.15;6.22;;;10.80;99.90;;;;;;5034784;28;20083;-74
2021/09/19 03:02:30;;;;;;;9.88;5.47;;;10.80;99.90;;;;;;5041418;28;20044;-74
2021/09/19 03:04:57;;;;;;;10.75;6.25;;;10.70;99.90;;;;;;5043327;28;20052;-75
2021/09/19 03:07:25;;;;;;;14.90;6.60;;;10.80;99.90;;;;;;5042396;28;20125;-74
2021/09/19 03:09:54;;;;;;;12.73;6.53;;;10.70;99.90;;;;;;5040368;28;20048;-74
2021/09/19 03:12:21;;;;;;;11.70;6.95;;;10.70;99.90;;;;;;5043240;28;20464;-74
2021/09/19 03:14:48;;;;;;;11.98;6.75;;;10.70;99.90;;;;;;5041646;28;20052;-74
2021/09/19 03:17:15;;;;;;;14.00;7.45;;;10.80;99.90;;;;;;5043684;28;20050;-75
2021/09/19 03:19:42;;;;;;;13.00;7.75;;;10.80;99.90;;;;;;5043095;28;20975;-74
2021/09/19 03:22:09;;;;;;;10.88;6.78;;;10.90;99.90;;;;;;5043917;28;20094;-74
2021/09/19 03:24:40;;;;;;;11.23;6.65;;;10.90;99.90;;;;;;5040957;28;20139;-74
2021/09/19 03:27:08;;;;;;;12.50;6.63;;;11.00;99.90;;;;;;5041717;28;20094;-74
2021/09/19 03:29:35;;;;;;;14.93;7.55;;;11.00;99.90;;;;;;5040103;28;20352;-74
2021/09/19 03:32:05;;;;;;;15.27;7.65;;;11.10;99.90;;;;;;5042370;28;20427;-74
2021/09/19 03:34:33;;;;;;;13.45;7.00;;;11.10;99.90;;;;;;5041546;28;20166;-74
2021/09/19 03:37:01;;;;;;;13.77;8.10;;;11.20;99.90;;;;;;5041825;28;20048;-74
2021/09/19 03:39:31;;;;;;;12.45;7.35;;;11.20;99.90;;;;;;5043343;28;20077;-74
2021/09/19 03:41:59;;;;;;;13.15;6.82;;;11.40;99.90;;;;;;5040774;28;20485;-75
2021/09/19 03:44:26;;;;;;;13.30;7.45;;;11.50;99.90;;;;;;5042222;28;20080;-75
2021/09/19 03:46:53;;;;;;;14.10;7.50;;;11.60;99.90;;;;;;5041764;28;20057;-75
2021/09/19 03:49:20;;;;;;;12.85;7.15;;;11.60;99.90;;;;;;5043310;28;20130;-75
2021/09/19 03:51:47;;;;;;;11.07;6.78;;;11.70;99.90;;;;;;5043578;28;20174;-74
2021/09/19 03:54:14;;;;;;;11.95;7.60;;;11.70;99.90;;;;;;5041114;28;20103;-74
2021/09/19 03:56:41;;;;;;;12.68;6.78;;;11.70;99.90;;;;;;5041202;28;20113;-74
2021/09/19 03:59:10;;;;;;;12.07;6.93;;;11.80;99.90;;;;;;5043907;28;20139;-74
2021/09/19 04:01:37;;;;;;;18.55;6.95;;;11.80;99.90;;;;;;5045021;28;20193;-73
2021/09/19 04:04:04;;;;;;;16.10;7.13;;;11.90;99.90;;;;;;5044162;28;20056;-73
2021/09/19 04:06:31;;;;;;;12.65;7.03;;;11.90;99.90;;;;;;5045375;28;20105;-74
2021/09/19 04:08:58;;;;;;;11.25;6.43;;;11.90;99.90;;;;;;5043582;28;20064;-73
2021/09/19 04:11:25;;;;;;;12.98;6.45;;;11.80;99.90;;;;;;5047500;28;20058;-73
2021/09/19 04:13:52;;;;;;;12.48;6.78;;;11.90;99.90;;;;;;5042817;28;21170;-73
2021/09/19 04:16:20;;;;;;;12.85;7.13;;;11.90;99.90;;;;;;5036922;28;20070;-74
2021/09/19 04:18:47;;;;;;;13.90;6.80;;;11.90;99.90;;;;;;5038898;28;20521;-73
2021/09/19 04:21:15;;;;;;;11.85;6.97;;;11.90;99.90;;;;;;5038505;28;20706;-73
2021/09/19 04:23:42;;;;;;;12.95;7.10;;;11.90;99.90;;;;;;5036981;28;20084;-73
2021/09/19 04:26:09;;;;;;;10.80;7.22;;;11.90;99.90;;;;;;5041504;28;20052;-72
2021/09/19 04:28:36;;;;;;;12.40;7.10;;;12.00;99.90;;;;;;5044382;28;20041;-72
2021/09/19 04:31:03;;;;;;;11.82;7.22;;;11.90;99.90;;;;;;5045570;28;20093;-73
2021/09/19 04:33:31;;;;;;;13.30;7.28;;;11.90;99.90;;;;;;5045200;28;20079;-73
2021/09/19 04:35:58;;;;;;;12.88;6.88;;;11.80;99.90;;;;;;5044023;28;20080;-74
2021/09/19 04:38:25;;;;;;;10.25;6.65;;;11.80;99.90;;;;;;5045023;28;20490;-73
2021/09/19 04:40:52;;;;;;;14.48;6.50;;;11.80;99.90;;;;;;5047247;28;20137;-73
2021/09/19 04:43:19;;;;;;;9.05;6.22;;;11.70;99.90;;;;;;5045683;28;20091;-73
2021/09/19 04:45:46;;;;;;;11.57;6.35;;;11.70;99.90;;;;;;5045295;28;20555;-73
2021/09/19 04:48:13;;;;;;;12.60;6.20;;;11.70;99.90;;;;;;5045914;28;20084;-73
2021/09/19 04:50:41;;;;;;;11.63;6.07;;;11.70;99.90;;;;;;5039067;28;20076;-72
2021/09/19 04:53:08;;;;;;;13.52;6.70;;;11.60;99.90;;;;;;5037373;28;20658;-73
2021/09/19 04:55:35;;;;;;;10.35;6.30;;;11.50;99.90;;;;;;5037727;28;20048;-73
2021/09/19 04:58:02;;;;;;;11.43;6.82;;;11.40;99.90;;;;;;5038973;28;20562;-73
2021/09/19 05:00:29;;;;;;;12.77;7.00;;;11.30;99.90;;;;;;5040182;28;20409;-73
2021/09/19 05:02:56;;;;;;;11.68;6.88;;;11.30;99.90;;;;;;5046000;28;20538;-73
2021/09/19 05:05:23;;;;;;;11.75;7.53;;;11.30;99.90;;;;;;5045163;28;20124;-72
2021/09/19 05:07:51;;;;;;;10.52;6.70;;;11.10;99.90;;;;;;5046459;28;20460;-73
2021/09/19 05:10:18;;;;;;;11.43;7.00;;;11.10;99.90;;;;;;5045991;28;20080;-73
2021/09/19 05:12:45;;;;;;;12.82;6.95;;;11.10;99.90;;;;;;5044966;28;20147;-72
2021/09/19 05:15:12;;;;;;;11.75;6.85;;;11.10;99.90;;;;;;5045665;28;20475;-73
2021/09/19 05:17:39;;;;;;;10.68;6.50;;;11.00;99.90;;;;;;5045954;28;20052;-74
2021/09/19 05:20:07;;;;;;;15.30;7.50;;;11.00;99.90;;;;;;5045009;28;20045;-73
2021/09/19 05:22:37;;;;;;;12.60;6.40;;;11.00;99.90;;;;;;5045885;28;20160;-74
2021/09/19 05:25:06;;;;;;;11.82;7.10;;;11.00;99.90;;;;;;5044500;28;20491;-73
2021/09/19 05:27:33;;;;;;;11.68;7.15;;;10.90;99.90;;;;;;5046080;28;20149;-74
2021/09/19 05:30:00;;;;;;;12.20;7.22;;;10.90;99.90;;;;;;5046114;28;20462;-74
2021/09/19 05:32:27;;;;;;;12.48;7.35;;;10.90;99.90;;;;;;5046419;28;20084;-74
2021/09/19 05:34:54;;;;;;;12.75;7.53;;;10.90;99.90;;;;;;5046018;28;20564;-74
2021/09/19 05:37:21;;;;;;;11.50;6.65;;;11.00;99.90;;;;;;5045330;28;20076;-74
2021/09/19 05:39:48;;;;;;;11.88;6.53;;;11.00;99.90;;;;;;5045206;28;20131;-74
2021/09/19 05:42:16;;;;;;;11.57;6.82;;;11.10;99.90;;;;;;5041778;28;20133;-73
2021/09/19 05:44:43;;;;;;;12.13;6.68;;;11.10;99.90;;;;;;5039266;28;21014;-74
2021/09/19 05:47:10;;;;;;;11.10;6.82;;;11.10;99.90;;;;;;5039258;28;20509;-74
2021/09/19 05:49:37;;;;;;;12.05;7.13;;;11.10;99.90;;;;;;5045302;28;20076;-74
2021/09/19 05:52:04;;;;;;;11.35;7.05;;;11.20;99.90;;;;;;5045076;28;20084;-74
2021/09/19 05:54:31;;;;;;;14.93;6.97;;;11.20;99.90;;;;;;5044580;28;20102;-74
2021/09/19 05:56:58;;;;;;;11.93;7.22;;;11.30;99.90;;;;;;5044400;28;20135;-74
2021/09/19 05:59:27;;;;;;;13.10;6.85;;;11.30;99.90;;;;;;5046644;28;20048;-74
2021/09/19 06:01:54;;;;;;;11.93;6.88;;;11.30;99.90;;;;;;5045784;28;20577;-74
2021/09/19 06:04:21;;;;;;;10.88;6.82;;;11.40;99.90;;;;;;5045796;28;20414;-74
2021/09/19 06:06:48;;;;;;;11.15;6.60;;;11.50;99.90;;;;;;5043296;28;20056;-73
2021/09/19 06:09:15;;;;;;;12.25;6.65;;;11.50;99.90;;;;;;5044188;28;20106;-73
2021/09/19 06:11:42;;;;;;;10.27;5.82;;;11.50;99.90;;;;;;5046528;28;20076;-73
2021/09/19 06:14:09;;;;;;;10.52;5.95;;;11.60;99.90;;;;;;5040096;28;20110;-74
2021/09/19 06:16:38;;;;;;;11.52;6.13;;;11.60;99.90;;;;;;5037752;28;20098;-74
2021/09/19 06:19:05;;;;;;;9.88;5.97;;;11.60;99.90;;;;;;5037237;28;20551;-74
2021/09/19 06:21:32;;;;;;;10.63;6.05;;;11.70;99.90;;;;;;5038797;28;20115;-74
2021/09/19 06:23:59;;;;;;;13.55;6.35;;;11.70;99.90;;;;;;5038821;28;20121;-74
2021/09/19 06:26:26;;;;;;;9.85;6.70;;;11.80;99.90;;;;;;5037356;28;20094;-74
2021/09/19 06:28:53;;;;;;;11.55;6.70;;;11.80;99.90;;;;;;5038883;28;20084;-74
2021/09/19 06:31:22;;;;;;;10.00;5.85;;;11.90;99.90;;;;;;5037187;28;20056;-74
2021/09/19 06:33:51;;;;;;;10.82;5.57;;;11.90;99.90;;;;;;5037330;28;20493;-74
2021/09/19 06:36:18;;;;;;;9.20;5.53;;;12.00;99.90;;;;;;5042565;28;20135;-74
2021/09/19 06:38:45;;;;;;;9.45;6.00;;;12.10;99.90;;;;;;5042307;28;20051;-74
2021/09/19 06:41:12;;;;;;;9.65;5.70;;;12.10;99.90;;;;;;5037141;28;20065;-74
2021/09/19 06:43:39;;;;;;;9.50;5.63;;;12.20;99.90;;;;;;5039007;28;20121;-74
2021/09/19 06:46:06;;;;;;;11.90;5.72;;;12.30;99.90;;;;;;5036657;28;20131;-74
2021/09/19 06:48:33;;;;;;;9.63;5.82;;;12.40;99.90;;;;;;5038928;28;20114;-74
2021/09/19 06:51:01;;;;;;;9.23;5.10;;;12.50;99.90;;;;;;5037555;28;20044;-75
2021/09/19 06:53:28;;;;;;;8.73;4.95;;;12.60;99.90;;;;;;5037588;28;20086;-74
2021/09/19 06:55:55;;;;;;;10.05;5.05;;;12.80;99.90;;;;;;5035648;28;20471;-74
2021/09/19 06:58:22;;;;;;;10.20;5.45;;;12.80;99.90;;;;;;5037024;28;20650;-74
2021/09/19 07:00:49;;;;;;;9.55;4.80;;;13.00;99.90;;;;;;5037510;28;20137;-74
2021/09/19 07:03:16;;;;;;;8.15;4.20;;;13.10;99.90;;;;;;5037953;28;20087;-74
2021/09/19 07:05:43;;;;;;;7.00;3.97;;;13.10;99.90;;;;;;5037745;28;20724;-74
2021/09/19 07:08:11;;;;;;;6.25;3.72;;;13.30;99.90;;;;;;5036327;28;20520;-74
2021/09/19 07:10:38;;;;;;;7.05;3.08;;;13.50;99.90;;;;;;5038486;28;20102;-73
2021/09/19 07:13:05;;;;;;;18.35;5.03;;;13.70;99.90;;;;;;5041629;28;20075;-74
2021/09/19 07:15:33;;;;;;;17.50;5.28;;;13.80;99.90;;;;;;5039892;28;20127;-75
2021/09/19 07:18:00;;;;;;;10.57;4.78;;;13.90;99.90;;;;;;5041560;28;20084;-73
2021/09/19 07:20:27;;;;;;;10.90;4.15;;;13.90;99.90;;;;;;5041923;28;20102;-74
2021/09/19 07:22:54;;;;;;;5.90;3.38;;;14.00;99.90;;;;;;5043322;28;20467;-73
2021/09/19 07:25:22;;;;;;;10.60;3.45;;;14.10;99.90;;;;;;5041144;28;20057;-74
2021/09/19 07:27:49;;;;;;;4.95;2.50;;;14.10;99.90;;;;;;5041393;28;20093;-74
2021/09/19 07:30:17;;;;;;;6.22;3.05;;;14.20;99.90;;;;;;5041478;28;20044;-74
2021/09/19 07:32:44;;;;;;;6.00;2.50;;;14.40;99.90;;;;;;5044008;28;20137;-74
2021/09/19 07:35:12;;;;;;;7.30;3.10;;;14.50;99.90;;;;;;5047674;28;20094;-74
2021/09/19 07:37:39;;;;;;;4.95;3.00;;;14.60;99.90;;;;;;5044887;28;20080;-74
2021/09/19 07:40:07;;;;;;;5.47;2.80;;;14.80;99.90;;;;;;5045525;28;20121;-74
2021/09/19 07:42:36;;;;;;;4.60;2.60;;;14.90;99.90;;;;;;5046890;28;20040;-74
2021/09/19 07:45:04;;;;;;;5.72;2.70;;;15.10;99.90;;;;;;5042742;28;20061;-74
2021/09/19 07:47:32;;;;;;;4.60;2.20;;;15.20;99.90;;;;;;5043542;28;20075;-74
2021/09/19 07:49:59;;;;;;;6.03;2.72;;;15.30;99.90;;;;;;5046306;28;20052;-74
2021/09/19 07:52:27;;;;;;;4.70;2.47;;;15.50;99.90;;;;;;5046874;28;20056;-73
2021/09/19 07:54:55;;;;;;;4.53;2.35;;;15.70;99.90;;;;;;5045826;28;20083;-74
2021/09/19 07:57:22;;;;;;;4.78;2.10;;;15.80;99.90;;;;;;5044435;28;20052;-73
2021/09/19 07:59:51;;;;;;;6.78;2.80;;;16.10;99.90;;;;;;5045669;28;20786;-74
2021/09/19 08:02:18;;;;;;;4.90;2.15;;;16.40;99.90;;;;;;5042629;28;20153;-74
2021/09/19 08:04:45;;;;;;;4.75;2.42;;;16.50;99.90;;;;;;5045491;28;20052;-73
2021/09/19 08:07:13;;;;;;;5.22;2.22;;;16.50;99.90;;;;;;5045222;28;20076;-74
2021/09/19 08:09:40;;;;;;;3.97;2.35;;;16.30;99.90;;;;;;5047166;28;20110;-76
2021/09/19 08:12:07;;;;;;;8.07;2.50;;;16.20;99.90;;;;;;5044858;28;20077;-74
2021/09/19 08:14:35;;;;;;;4.25;2.10;;;16.30;99.90;;;;;;5046149;28;20075;-74
2021/09/19 08:17:03;;;;;;;3.95;2.10;;;16.40;99.90;;;;;;5046788;28;20053;-74
2021/09/19 08:19:30;;;;;;;3.50;2.15;;;16.60;99.90;;;;;;5041708;28;20053;-73
2021/09/19 08:21:57;;;;;;;4.43;2.35;;;16.90;99.90;;;;;;5041414;28;20059;-75
2021/09/19 08:24:24;;;;;;;3.42;2.00;;;16.90;99.90;;;;;;5043306;28;20346;-74
2021/09/19 08:26:51;;;;;;;3.90;2.22;;;17.00;99.90;;;;;;5042847;28;20049;-74
2021/09/19 08:29:18;;;;;;;4.25;2.30;;;17.00;99.90;;;;;;5043478;28;20080;-74
2021/09/19 08:31:45;;;;;;;3.50;2.38;;;17.20;99.90;;;;;;5042953;28;20080;-74
2021/09/19 08:34:14;;;;;;;3.28;2.00;;;17.70;99.90;;;;;;5045162;28;20044;-74
2021/09/19 08:36:41;;;;;;;3.60;1.85;;;17.70;99.90;;;;;;5044006;28;20052;-74
2021/09/19 08:39:10;;;;;;;3.30;2.00;;;17.60;99.90;;;;;;5044253;28;20052;-74
2021/09/19 08:41:37;;;;;;;2.55;1.70;;;17.40;99.90;;;;;;5040890;28;21096;-75
2021/09/19 08:44:04;;;;;;;3.33;1.98;;;17.40;99.90;;;;;;5041178;28;20059;-76
2021/09/19 08:46:32;;;;;;;3.00;1.98;;;17.40;99.90;;;;;;5043907;28;20140;-73
2021/09/19 08:48:59;;;;;;;3.72;2.00;;;17.60;99.90;;;;;;5043492;28;20048;-74
2021/09/19 08:51:27;;;;;;;3.33;1.70;;;18.10;99.90;;;;;;5045768;28;20530;-73
2021/09/19 08:53:54;;;;;;;4.45;2.05;;;17.80;99.90;;;;;;5044847;28;20048;-74
2021/09/19 08:56:26;;;;;;;5.60;2.30;;;17.70;99.90;;;;;;5044415;28;20044;-73
2021/09/19 08:58:53;;;;;;;4.15;1.92;;;17.30;99.90;;;;;;5044383;28;20076;-73
2021/09/19 09:01:20;;;;;;;4.40;2.03;;;17.30;99.90;;;;;;5042333;28;20049;-74
2021/09/19 09:03:47;;;;;;;3.25;1.88;;;17.40;99.90;;;;;;5044180;28;20501;-74
2021/09/19 09:06:18;;;;;;;4.85;2.10;;;17.40;99.90;;;;;;5044009;28;20068;-73
2021/09/19 09:08:47;;;;;;;2.92;1.88;;;17.20;99.90;;;;;;5046201;28;20106;-73
2021/09/19 09:11:14;;;;;;;4.50;2.28;;;17.20;99.90;;;;;;5043766;28;20063;-74
2021/09/19 09:13:43;;;;;;;4.63;2.10;;;17.10;99.90;;;;;;5043662;28;20607;-74
2021/09/19 09:16:12;;;;;;;4.38;2.58;;;17.10;99.90;;;;;;5043270;28;20057;-73
2021/09/19 09:18:41;;;;;;;4.15;2.20;;;16.80;99.90;;;;;;5043719;28;20489;-74
2021/09/19 09:21:10;;;;;;;3.97;2.25;;;16.70;99.90;;;;;;5046704;28;20072;-73
2021/09/19 09:23:39;;;;;;;4.20;1.70;;;16.70;99.90;;;;;;5044700;28;20741;-74
2021/09/19 09:26:26;;;;;;;5.30;2.08;;;16.50;99.90;;;;;;5042814;28;20141;-74
2021/09/19 09:28:54;;;;;;;;;;;16.60;99.90;;;;;;5047396;28;20064;-74
2021/09/19 09:31:25;;;;;;;3.17;1.95;;;16.70;99.90;;;;;;5038722;28;19929;-73
2021/09/19 09:33:57;;;;;;;3.63;2.00;;;16.40;99.90;;;;;;5044848;28;20590;-74
2021/09/19 09:36:32;;;;;;;3.38;2.10;;;16.50;99.90;;;;;;5044595;28;20056;-73
2021/09/19 09:39:00;;;;;;;4.82;2.20;;;16.50;99.90;;;;;;5046497;28;20128;-74
2021/09/19 09:41:40;;;;;;;3.60;2.03;;;16.50;99.90;;;;;;5045073;28;20102;-74
2021/09/19 09:44:32;;;;;;;3.95;2.08;;;16.70;99.90;;;;;;5048896;28;20114;-73
2021/09/19 09:47:00;;;;;;;5.47;2.17;;;16.60;99.90;;;;;;5048034;28;20052;-74
2021/09/19 09:49:45;;;;;;;3.95;2.28;;;16.90;99.90;;;;;;5043843;28;20044;-74
2021/09/19 09:52:13;;;;;;;4.78;2.33;;;16.80;99.90;;;;;;5046430;28;20048;-74
2021/09/19 09:54:45;;;;;;;3.42;2.10;;;16.70;99.90;;;;;;5046970;28;20092;-74
2021/09/19 09:57:24;;;;;;;3.53;2.03;;;16.80;99.90;;;;;;5040613;28;20465;-74
2021/09/19 09:59:52;;;;;;;3.95;1.95;;;16.90;99.90;;;;;;5042740;28;20101;-73
2021/09/19 10:02:21;;;;;;;4.20;2.30;;;17.00;99.90;;;;;;5042409;28;20052;-73
2021/09/19 10:04:51;;;;;;;4.47;2.53;;;17.20;99.90;;;;;;5047136;28;20044;-74
2021/09/19 10:07:19;;;;;;;5.40;2.20;;;17.10;99.90;;;;;;5043385;28;20056;-74
2021/09/19 10:09:46;;;;;;;4.82;1.85;;;17.00;99.90;;;;;;5043812;28;20137;-74
2021/09/19 10:12:14;;;;;;;3.67;2.00;;;17.40;99.90;;;;;;5043119;28;20052;-74
2021/09/19 10:14:41;;;;;;;3.13;1.98;;;17.70;99.90;;;;;;5044494;28;20106;-73
2021/09/19 10:17:08;;;;;;;5.05;2.75;;;17.80;99.90;;;;;;5042694;28;20087;-74
2021/09/19 10:19:35;;;;;;;4.50;2.10;;;17.60;99.90;;;;;;5043526;28;20452;-74
2021/09/19 10:22:03;;;;;;;3.55;2.25;;;17.30;99.90;;;;;;5043333;28;20135;-73
2021/09/19 10:24:37;;;;;;;4.97;2.20;;;17.20;99.90;;;;;;5041432;28;20093;-74
2021/09/19 10:27:22;;;;;;;4.22;2.58;;;17.10;99.90;;;;;;5043395;28;20048;-74
2021/09/19 10:29:50;;;;;;;4.68;2.88;;;17.10;99.90;;;;;;5045957;28;20049;-74
2021/09/19 10:32:34;;;;;;;4.55;2.72;;;17.00;99.90;;;;;;5046410;28;20055;-74
2021/09/19 10:35:01;;;;;;;6.28;3.33;;;17.10;99.90;;;;;;5046236;28;20353;-73
2021/09/19 10:37:49;;;;;;;6.53;3.35;;;17.10;99.90;;;;;;5043154;28;20144;-74
2021/09/19 10:40:30;;;;;;;6.40;3.78;;;17.00;99.90;;;;;;5043382;28;20048;-74
2021/09/19 10:42:59;;;;;;;6.65;3.38;;;17.10;99.90;;;;;;5044291;28;20055;-74
2021/09/19 10:45:38;;;;;;;4.60;2.70;;;17.40;99.90;;;;;;5042347;28;20535;-74
2021/09/19 10:48:15;;;;;;;5.22;2.78;;;17.20;99.90;;;;;;5039958;28;20554;-74
2021/09/19 10:50:44;;;;;;;4.18;2.65;;;17.60;99.90;;;;;;5044587;28;20057;-74
2021/09/19 10:53:25;;;;;;;5.00;2.97;;;17.70;99.90;;;;;;5040359;28;20467;-73
2021/09/19 10:55:58;;;;;;;5.28;3.00;;;18.00;99.90;;;;;;5040574;28;20124;-73
2021/09/19 10:58:28;;;;;;;4.10;2.40;;;17.80;99.90;;;;;;5046609;28;20092;-74
2021/09/19 11:01:13;;;;;;;4.05;2.53;;;18.00;99.90;;;;;;5043416;28;20550;-74
2021/09/19 11:03:41;;;;;;;4.78;2.72;;;18.50;99.90;;;;;;5045478;28;20578;-73
2021/09/19 11:06:22;;;;;;;3.50;2.22;;;18.40;99.90;;;;;;5039774;28;20056;-74
2021/09/19 11:08:50;;;;;;;4.90;2.60;;;18.30;99.90;;;;;;5042493;28;20053;-73
2021/09/19 11:11:25;;;;;;;5.95;2.95;;;18.10;99.90;;;;;;5043774;28;20101;-75
2021/09/19 11:13:56;;;;;;;5.35;2.25;;;18.00;99.90;;;;;;5045173;28;20084;-74
2021/09/19 11:16:41;;;;;;;4.78;2.53;;;18.10;99.90;;;;;;5042857;28;20076;-74
2021/09/19 11:19:14;;;;;;;6.32;2.30;;;18.10;99.90;;;;;;5044686;28;20053;-74
2021/09/19 11:21:49;;;;;;;5.55;2.53;;;18.90;99.90;;;;;;5044215;28;20139;-73
2021/09/19 11:24:24;;;;;;;5.57;2.05;;;19.60;99.90;;;;;;5041217;28;20124;-74
2021/09/19 11:26:54;;;;;;;4.03;2.22;;;19.90;99.90;;;;;;5042630;28;20469;-73
2021/09/19 11:29:25;;;;;;;4.13;2.10;;;20.00;99.90;;;;;;5042284;28;20041;-74
2021/09/19 11:31:54;;;;;;;5.57;2.22;;;20.40;99.90;;;;;;5043582;28;20061;-74
2021/09/19 11:34:22;;;;;;;4.35;2.20;;;20.00;99.90;;;;;;5043282;28;20459;-74
2021/09/19 11:36:52;;;;;;;4.40;2.55;;;19.80;99.90;;;;;;5040416;28;20117;-74
2021/09/19 11:39:19;;;;;;;3.70;2.08;;;19.90;99.90;;;;;;5042315;28;20076;-73
2021/09/19 11:41:48;;;;;;;3.55;2.20;;;19.70;99.90;;;;;;5042458;28;20571;-74
2021/09/19 11:44:18;;;;;;;3.45;2.13;;;20.30;99.90;;;;;;5042822;28;20165;-74
2021/09/19 11:46:48;;;;;;;3.42;2.13;;;20.10;99.90;;;;;;5041337;28;20472;-74
2021/09/19 11:49:16;;;;;;;2.80;1.85;;;19.90;99.90;;;;;;5041435;28;20076;-73
2021/09/19 11:51:44;;;;;;;3.63;2.20;;;20.20;99.90;;;;;;5041149;28;20057;-73
2021/09/19 11:54:16;;;;;;;4.05;1.90;;;20.20;99.90;;;;;;5037546;28;20144;-74
2021/09/19 11:56:47;;;;;;;3.60;2.05;;;20.10;99.90;;;;;;5040122;28;20264;-73
2021/09/19 11:59:15;;;;;;;3.33;2.17;;;19.70;99.90;;;;;;5040500;28;20850;-74
2021/09/19 12:01:43;;;;;;;2.85;1.70;;;19.90;99.90;;;;;;5034942;28;20517;-74
2021/09/19 12:04:13;;;;;;;3.10;1.88;;;20.20;99.90;;;;;;5037736;28;20128;-74
2021/09/19 12:06:43;;;;;;;2.65;1.83;;;19.90;99.90;;;;;;5040181;28;20067;-73
2021/09/19 12:09:12;;;;;;;3.30;2.05;;;19.70;99.90;;;;;;5042851;28;20110;-74
2021/09/19 12:11:44;;;;;;;5.57;3.10;;;19.20;99.90;;;;;;5041175;28;20394;-74
2021/09/19 12:14:13;;;;;;;3.20;1.88;;;19.50;99.90;;;;;;5039402;28;20044;-74
2021/09/19 12:16:41;;;;;;;3.05;1.95;;;19.60;99.90;;;;;;5036595;28;20048;-74
2021/09/19 12:19:21;;;;;;;4.47;2.05;;;19.20;99.90;;;;;;5041220;28;20454;-74
2021/09/19 12:21:59;;;;;;;3.60;1.98;;;19.70;99.90;;;;;;5047176;28;20053;-74
2021/09/19 12:24:28;;;;;;;4.53;2.00;;;19.90;99.90;;;;;;5047780;28;20051;-74
2021/09/19 12:27:11;;;;;;;3.30;1.95;;;19.40;99.90;;;;;;5044499;28;20287;-74
2021/09/19 12:29:38;;;;;;;5.50;2.38;;;19.30;99.90;;;;;;5042468;28;20049;-76
2021/09/19 12:32:05;;;;;;;5.43;2.70;;;19.60;99.90;;;;;;5041945;28;20081;-74
2021/09/19 12:34:34;;;;;;;5.65;2.33;;;19.70;99.90;;;;;;5043261;28;20135;-74
2021/09/19 12:37:01;;;;;;;4.68;2.50;;;19.60;99.90;;;;;;5043327;28;20048;-74
2021/09/19 12:39:31;;;;;;;4.00;2.50;;;19.80;99.90;;;;;;5041488;28;20088;-74
2021/09/19 12:42:02;;;;;;;4.82;2.30;;;19.60;99.90;;;;;;5045658;28;20139;-74
2021/09/19 12:44:31;;;;;;;5.10;2.70;;;19.80;99.90;;;;;;5044403;28;20084;-73
2021/09/19 12:47:01;;;;;;;4.85;2.47;;;20.10;99.90;;;;;;5040682;28;20205;-73
2021/09/19 12:49:29;;;;;;;4.38;2.47;;;20.10;99.90;;;;;;5042438;28;20063;-73
2021/09/19 12:52:09;;;;;;;3.95;2.70;;;20.00;99.90;;;;;;5040894;28;20048;-74